createdAt,value
2022-09-29T00:00:54.895Z,0.82
2022-09-29T00:02:56.348Z,1.00
2022-09-29T00:04:58.135Z,0.88
2022-09-29T00:06:59.648Z,0.80
2022-09-29T00:09:01.167Z,0.90
2022-09-29T00:11:06.887Z,0.90
2022-09-29T00:13:08.399Z,1.25
2022-09-29T00:15:10.218Z,0.93
2022-09-29T00:17:11.928Z,1.10
2022-09-29T00:19:13.431Z,2.25
2022-09-29T00:21:16.810Z,0.82
2022-09-29T00:23:18.268Z,1.08
2022-09-29T00:25:19.775Z,0.90
2022-09-29T00:27:25.439Z,1.13
2022-09-29T00:29:35.988Z,0.90
2022-09-29T00:31:45.620Z,0.90
2022-09-29T00:33:55.245Z,0.73
2022-09-29T00:36:04.037Z,0.98
2022-09-29T00:38:13.447Z,0.93
2022-09-29T00:40:23.527Z,1.08
2022-09-29T00:42:36.252Z,0.70
2022-09-29T00:44:54.694Z,1.23
2022-09-29T00:47:08.389Z,0.95
2022-09-29T00:51:27.856Z,0.70
2022-09-29T00:53:37.894Z,0.90
2022-09-29T00:55:46.639Z,1.27
2022-09-29T00:57:59.946Z,0.90
2022-09-29T01:00:04.358Z,0.80
2022-09-29T01:02:06.268Z,0.93
2022-09-29T01:04:13.298Z,0.98
2022-09-29T01:06:20.218Z,0.88
2022-09-29T01:08:27.684Z,1.00
2022-09-29T01:10:29.196Z,0.70
2022-09-29T01:12:30.939Z,1.02
2022-09-29T01:14:33.575Z,1.88
2022-09-29T01:16:36.498Z,1.10
2022-09-29T01:18:38.632Z,0.90
2022-09-29T01:20:43.425Z,1.23
2022-09-29T01:22:45.063Z,0.98
2022-09-29T01:24:57.253Z,1.17
2022-09-29T01:26:58.853Z,0.80
2022-09-29T01:29:09.423Z,1.10
2022-09-29T01:31:22.338Z,0.85
2022-09-29T01:33:32.714Z,0.95
2022-09-29T01:35:54.682Z,0.95
2022-09-29T01:37:56.168Z,1.27
2022-09-29T01:40:18.213Z,1.40
2022-09-29T01:42:22.954Z,1.88
2022-09-29T01:44:32.182Z,2.40
2022-09-29T01:46:36.658Z,1.60
2022-09-29T01:48:44.910Z,1.88
2022-09-29T01:50:48.367Z,1.80
2022-09-29T01:52:52.106Z,1.90
2022-09-29T01:55:01.725Z,1.73
2022-09-29T01:57:15.093Z,1.70
2022-09-29T01:59:23.658Z,2.10
2022-09-29T02:01:27.349Z,2.28
2022-09-29T02:03:43.254Z,2.55
2022-09-29T02:05:55.555Z,2.10
2022-09-29T02:07:59.046Z,1.98
2022-09-29T02:10:26.627Z,2.10
2022-09-29T02:12:29.031Z,2.15
2022-09-29T02:14:33.526Z,2.53
2022-09-29T02:16:37.779Z,2.70
2022-09-29T02:18:47.806Z,2.50
2022-09-29T02:20:50.082Z,3.85
2022-09-29T02:22:51.548Z,3.08
2022-09-29T02:24:54.410Z,2.10
2022-09-29T02:26:55.940Z,2.10
2022-09-29T02:28:57.935Z,2.58
2022-09-29T02:31:00.500Z,2.28
2022-09-29T02:33:02.443Z,2.53
2022-09-29T02:35:06.238Z,1.70
2022-09-29T02:37:14.026Z,1.95
2022-09-29T02:39:24.669Z,1.85
2022-09-29T02:41:32.294Z,1.60
2022-09-29T02:43:51.483Z,1.90
2022-09-29T02:46:07.063Z,1.48
2022-09-29T02:48:16.587Z,1.42
2022-09-29T02:50:27.255Z,1.50
2022-09-29T02:52:43.960Z,1.60
2022-09-29T02:54:55.159Z,1.20
2022-09-29T02:57:23.053Z,1.42
2022-09-29T02:59:42.661Z,1.05
2022-09-29T03:01:49.143Z,1.38
2022-09-29T03:03:50.764Z,1.63
2022-09-29T03:05:52.809Z,0.80
2022-09-29T03:07:54.218Z,1.55
2022-09-29T03:09:55.999Z,0.98
2022-09-29T03:11:58.575Z,1.00
2022-09-29T03:14:00.165Z,0.90
2022-09-29T03:16:01.976Z,0.98
2022-09-29T03:18:08.228Z,0.80
2022-09-29T03:20:11.646Z,0.82
2022-09-29T03:22:13.386Z,0.60
2022-09-29T03:24:15.305Z,0.60
2022-09-29T03:26:17.070Z,0.75
2022-09-29T03:28:22.796Z,0.70
2022-09-29T03:30:24.806Z,0.73
2022-09-29T03:32:31.601Z,0.65
2022-09-29T03:34:44.738Z,0.82
2022-09-29T03:36:52.676Z,1.00
2022-09-29T03:39:03.394Z,0.50
2022-09-29T03:41:13.419Z,0.65
2022-09-29T03:43:23.899Z,0.80
2022-09-29T03:45:34.287Z,1.00
2022-09-29T03:47:44.384Z,0.70
2022-09-29T03:49:54.413Z,0.70
2022-09-29T03:52:06.362Z,0.70
2022-09-29T03:54:16.452Z,0.80
2022-09-29T03:56:22.971Z,0.90
2022-09-29T03:58:33.049Z,0.85
2022-09-29T04:00:36.072Z,0.70
2022-09-29T04:02:37.604Z,0.60
2022-09-29T04:04:39.046Z,1.70
2022-09-29T04:06:40.455Z,1.08
2022-09-29T04:08:42.188Z,1.05
2022-09-29T04:10:45.743Z,0.80
2022-09-29T04:12:47.220Z,1.00
2022-09-29T04:14:48.769Z,1.25
2022-09-29T04:16:50.242Z,1.15
2022-09-29T04:18:51.683Z,1.67
2022-09-29T04:20:54.569Z,0.80
2022-09-29T04:22:56.102Z,0.90
2022-09-29T04:24:58.413Z,0.80
2022-09-29T04:26:59.938Z,0.75
2022-09-29T04:29:01.503Z,1.10
2022-09-29T04:31:03.428Z,0.85
2022-09-29T04:33:04.942Z,1.00
2022-09-29T04:35:06.750Z,1.10
2022-09-29T04:37:11.447Z,0.80
2022-09-29T04:39:13.190Z,1.00
2022-09-29T04:41:14.859Z,1.00
2022-09-29T04:43:16.423Z,1.50
2022-09-29T04:45:17.920Z,1.15
2022-09-29T04:47:19.602Z,1.42
2022-09-29T04:49:22.122Z,0.88
2022-09-29T04:51:23.936Z,1.00
2022-09-29T04:53:25.655Z,1.17
2022-09-29T04:55:27.522Z,1.08
2022-09-29T04:57:29.080Z,0.95
2022-09-29T04:59:30.866Z,1.40
2022-09-29T05:01:32.584Z,1.20
2022-09-29T05:03:34.052Z,1.20
2022-09-29T05:05:35.583Z,1.58
2022-09-29T05:07:38.275Z,1.08
2022-09-29T05:09:40.138Z,1.10
2022-09-29T05:11:41.753Z,0.90
2022-09-29T05:13:43.241Z,1.42
2022-09-29T05:15:44.752Z,1.00
2022-09-29T05:17:46.531Z,1.20
2022-09-29T05:19:47.962Z,1.05
2022-09-29T05:21:49.801Z,1.73
2022-09-29T05:23:51.484Z,0.88
2022-09-29T05:25:52.965Z,1.33
2022-09-29T05:27:54.424Z,1.23
2022-09-29T05:29:55.859Z,1.10
2022-09-29T05:31:57.638Z,0.80
2022-09-29T05:33:59.175Z,1.33
2022-09-29T05:36:01.034Z,1.08
2022-09-29T05:38:02.733Z,1.27
2022-09-29T05:40:04.972Z,0.93
2022-09-29T05:42:10.824Z,1.30
2022-09-29T05:44:12.266Z,1.38
2022-09-29T05:46:15.156Z,1.42
2022-09-29T05:48:18.258Z,1.60
2022-09-29T05:50:19.719Z,1.17
2022-09-29T05:52:21.434Z,1.48
2022-09-29T05:54:23.980Z,1.58
2022-09-29T05:56:26.179Z,1.40
2022-09-29T05:58:27.662Z,1.70
2022-09-29T06:00:31.530Z,1.83
2022-09-29T06:02:34.329Z,1.80
2022-09-29T06:04:40.531Z,2.15
2022-09-29T06:06:42.258Z,2.40
2022-09-29T06:08:44.042Z,2.05
2022-09-29T06:10:45.666Z,1.60
2022-09-29T06:12:47.339Z,1.75
2022-09-29T06:14:49.051Z,1.60
2022-09-29T06:16:51.087Z,1.20
2022-09-29T06:18:53.073Z,1.52
2022-09-29T06:20:54.804Z,1.67
2022-09-29T06:22:56.443Z,1.30
2022-09-29T06:24:58.091Z,1.38
2022-09-29T06:26:59.898Z,1.20
2022-09-29T06:29:01.603Z,1.67
2022-09-29T06:31:04.975Z,1.60
2022-09-29T06:33:06.675Z,1.75
2022-09-29T06:35:27.331Z,1.70
2022-09-29T06:37:36.299Z,1.67
2022-09-29T06:39:52.325Z,1.42
2022-09-29T06:42:12.630Z,1.40
2022-09-29T06:44:36.118Z,1.17
2022-09-29T06:46:51.152Z,1.30
2022-09-29T06:49:09.585Z,2.13
2022-09-29T06:51:39.622Z,1.75
2022-09-29T06:54:08.692Z,1.42
2022-09-29T06:56:33.436Z,1.63
2022-09-29T06:58:57.743Z,1.70
2022-09-29T07:01:20.359Z,1.70
2022-09-29T07:03:42.523Z,1.90
2022-09-29T07:06:20.110Z,1.88
2022-09-29T07:08:26.832Z,1.40
2022-09-29T07:10:28.481Z,1.67
2022-09-29T07:12:30.400Z,1.88
2022-09-29T07:14:32.329Z,1.52
2022-09-29T07:16:34.024Z,1.35
2022-09-29T07:18:37.768Z,1.55
2022-09-29T07:20:40.958Z,1.42
2022-09-29T07:22:42.410Z,1.00
2022-09-29T07:24:44.087Z,1.60
2022-09-29T07:26:45.784Z,1.35
2022-09-29T07:28:47.746Z,1.15
2022-09-29T07:31:22.793Z,1.23
2022-09-29T07:33:35.277Z,1.23
2022-09-29T07:35:40.183Z,1.13
2022-09-29T07:37:41.914Z,1.40
2022-09-29T07:39:43.485Z,1.65
2022-09-29T07:41:45.050Z,1.38
2022-09-29T07:46:12.495Z,1.55
2022-09-29T07:48:14.332Z,1.40
2022-09-29T07:50:15.783Z,1.13
2022-09-29T07:52:17.767Z,1.45
2022-09-29T07:54:20.340Z,1.20
2022-09-29T07:56:22.841Z,1.40
2022-09-29T07:58:24.655Z,1.17
2022-09-29T08:00:26.728Z,1.00
2022-09-29T08:02:32.175Z,1.48
2022-09-29T08:04:34.184Z,1.20
2022-09-29T08:06:36.795Z,1.85
2022-09-29T08:08:39.501Z,1.48
2022-09-29T08:10:52.406Z,1.65
2022-09-29T08:12:56.405Z,1.92
2022-09-29T08:14:58.241Z,1.10
2022-09-29T08:16:59.942Z,1.38
2022-09-29T08:19:02.008Z,1.15
2022-09-29T08:21:04.529Z,0.98
2022-09-29T08:23:07.018Z,0.85
2022-09-29T08:25:08.831Z,1.08
2022-09-29T08:27:18.149Z,0.70
2022-09-29T08:29:20.668Z,0.88
2022-09-29T08:31:23.164Z,0.80
2022-09-29T08:33:24.799Z,0.75
2022-09-29T08:35:26.378Z,0.85
2022-09-29T08:37:30.964Z,1.15
2022-09-29T08:39:35.788Z,0.75
2022-09-29T08:41:55.667Z,1.17
2022-09-29T08:44:35.959Z,1.52
2022-09-29T08:46:40.032Z,1.38
2022-09-29T08:48:56.005Z,1.10
2022-09-29T08:51:04.750Z,1.20
2022-09-29T08:53:23.489Z,1.15
2022-09-29T08:55:33.010Z,1.10
2022-09-29T08:57:36.860Z,0.95
2022-09-29T08:59:38.353Z,0.60
2022-09-29T09:01:51.977Z,0.50
2022-09-29T09:04:09.781Z,0.47
2022-09-29T09:06:27.039Z,0.50
2022-09-29T09:08:41.633Z,0.40
2022-09-29T09:10:48.281Z,0.40
2022-09-29T09:13:03.429Z,0.40
2022-09-29T09:15:13.615Z,0.40
2022-09-29T09:17:34.312Z,0.60
2022-09-29T09:20:01.890Z,0.40
2022-09-29T09:22:03.775Z,0.50
2022-09-29T09:24:06.493Z,0.30
2022-09-29T09:26:09.143Z,0.43
2022-09-29T09:28:29.322Z,0.43
2022-09-29T09:30:35.675Z,0.40
2022-09-29T09:32:39.906Z,0.47
2022-09-29T09:34:45.423Z,0.50
2022-09-29T09:37:08.746Z,0.50
2022-09-29T09:39:16.155Z,0.80
2022-09-29T09:41:20.056Z,0.30
2022-09-29T09:43:27.632Z,1.00
2022-09-29T09:45:40.389Z,0.40
2022-09-29T09:48:05.854Z,0.50
2022-09-29T09:50:16.308Z,0.40
2022-09-29T09:52:46.523Z,0.40
2022-09-29T09:55:04.157Z,0.63
2022-09-29T09:57:29.667Z,0.35
2022-09-29T09:59:57.619Z,0.30
2022-09-29T10:02:01.561Z,0.20
2022-09-29T10:06:13.350Z,0.30
2022-09-29T10:08:33.006Z,0.60
2022-09-29T10:10:57.522Z,0.30
2022-09-29T10:13:09.206Z,0.50
2022-09-29T10:15:13.708Z,0.40
2022-09-29T10:17:16.426Z,0.60
2022-09-29T10:19:36.238Z,0.57
2022-09-29T10:21:39.423Z,0.50
2022-09-29T10:23:50.009Z,0.70
2022-09-29T10:25:56.423Z,0.52
2022-09-29T10:27:58.363Z,0.55
2022-09-29T10:30:00.307Z,0.60
2022-09-29T10:32:04.791Z,0.70
2022-09-29T10:34:13.837Z,0.55
2022-09-29T10:36:15.354Z,0.50
2022-09-29T10:38:26.775Z,0.50
2022-09-29T10:40:28.985Z,0.65
2022-09-29T10:42:38.687Z,0.50
2022-09-29T10:44:40.278Z,0.60
2022-09-29T10:46:52.936Z,0.43
2022-09-29T10:49:13.413Z,0.50
2022-09-29T10:51:20.430Z,0.75
2022-09-29T10:53:24.835Z,0.60
2022-09-29T10:55:28.007Z,0.70
2022-09-29T10:57:31.862Z,0.82
2022-09-29T10:59:33.412Z,0.60
2022-09-29T11:01:43.429Z,0.50
2022-09-29T11:04:03.379Z,0.73
2022-09-29T11:06:06.737Z,0.80
2022-09-29T11:08:12.087Z,0.93
2022-09-29T11:10:32.039Z,0.60
2022-09-29T11:12:34.883Z,0.70
2022-09-29T11:14:36.543Z,0.60
2022-09-29T11:16:38.553Z,0.50
2022-09-29T11:18:40.203Z,0.70
2022-09-29T11:20:42.227Z,0.93
2022-09-29T11:22:59.692Z,0.65
2022-09-29T11:25:04.062Z,0.70
2022-09-29T11:27:18.622Z,0.60
2022-09-29T11:29:47.362Z,0.50
2022-09-29T11:31:54.507Z,0.55
2022-09-29T11:34:05.679Z,0.90
2022-09-29T11:36:10.215Z,0.77
2022-09-29T11:38:30.683Z,1.10
2022-09-29T11:40:35.141Z,0.90
2022-09-29T11:43:01.756Z,0.88
2022-09-29T11:45:04.788Z,0.70
2022-09-29T11:47:19.410Z,0.50
2022-09-29T11:49:23.807Z,0.52
2022-09-29T11:51:25.420Z,0.60
2022-09-29T11:53:33.237Z,0.70
2022-09-29T11:55:34.682Z,0.70
2022-09-29T11:57:49.654Z,0.50
2022-09-29T12:00:07.360Z,0.20
2022-09-29T12:02:28.006Z,0.50
2022-09-29T12:04:35.403Z,0.90
2022-09-29T12:06:49.348Z,0.30
2022-09-29T12:08:57.107Z,0.45
2022-09-29T12:11:13.087Z,0.20
2022-09-29T12:13:27.339Z,0.22
2022-09-29T12:15:49.501Z,0.20
2022-09-29T12:17:57.205Z,0.50
2022-09-29T12:20:25.722Z,0.28
2022-09-29T12:22:30.142Z,0.30
2022-09-29T12:24:36.430Z,0.20
2022-09-29T12:26:38.920Z,0.30
2022-09-29T12:28:52.678Z,0.13
2022-09-29T12:30:57.598Z,0.10
2022-09-29T12:33:06.081Z,0.10
2022-09-29T12:35:07.699Z,0.25
2022-09-29T12:37:10.683Z,0.20
2022-09-29T12:39:26.197Z,0.10
2022-09-29T12:41:31.412Z,0.20
2022-09-29T12:43:35.271Z,0.10
2022-09-29T12:48:15.975Z,0.00
2022-09-29T12:50:28.069Z,0.38
2022-09-29T12:52:52.881Z,0.10
2022-09-29T12:55:01.231Z,0.08
2022-09-29T12:57:05.634Z,0.10
2022-09-29T12:59:15.322Z,0.20
2022-09-29T13:01:24.515Z,0.13
2022-09-29T13:03:42.240Z,0.10
2022-09-29T13:06:16.236Z,0.10
2022-09-29T13:08:27.952Z,0.50
2022-09-29T13:10:44.790Z,0.40
2022-09-29T13:13:13.871Z,0.30
2022-09-29T13:15:27.599Z,0.85
2022-09-29T13:17:49.141Z,0.20
2022-09-29T13:20:15.779Z,0.30
2022-09-29T13:22:21.314Z,0.20
2022-09-29T13:24:41.723Z,0.20
2022-09-29T13:27:03.786Z,0.20
2022-09-29T13:29:10.856Z,0.20
2022-09-29T13:31:16.142Z,0.20
2022-09-29T13:33:22.230Z,0.20
2022-09-29T13:35:27.641Z,0.30
2022-09-29T13:37:42.891Z,0.20
2022-09-29T13:40:11.500Z,0.20
2022-09-29T13:42:38.852Z,0.30
2022-09-29T13:44:40.399Z,0.25
2022-09-29T13:46:42.455Z,0.20
2022-09-29T13:48:50.777Z,1.00
2022-09-29T13:50:53.314Z,0.30
2022-09-29T13:52:54.740Z,0.20
2022-09-29T13:54:56.307Z,0.30
2022-09-29T13:57:12.490Z,0.32
2022-09-29T13:59:15.808Z,0.20
2022-09-29T14:01:30.656Z,0.30
2022-09-29T14:03:33.295Z,0.30
2022-09-29T14:05:39.247Z,0.20
2022-09-29T14:07:40.817Z,0.35
2022-09-29T14:09:45.685Z,0.32
2022-09-29T14:11:51.561Z,0.40
2022-09-29T14:13:56.130Z,0.20
2022-09-29T14:16:01.030Z,0.55
2022-09-29T14:18:05.168Z,0.47
2022-09-29T14:22:26.288Z,0.22
2022-09-29T14:24:37.017Z,0.40
2022-09-29T14:26:48.558Z,0.47
2022-09-29T14:28:53.128Z,0.40
2022-09-29T14:30:57.779Z,0.50
2022-09-29T14:33:00.843Z,0.55
2022-09-29T14:35:03.880Z,0.77
2022-09-29T14:37:07.246Z,0.60
2022-09-29T14:39:26.878Z,0.65
2022-09-29T14:41:32.215Z,0.50
2022-09-29T14:43:41.521Z,0.57
2022-09-29T14:46:18.456Z,0.63
2022-09-29T14:48:45.353Z,0.70
2022-09-29T14:51:20.750Z,0.90
2022-09-29T14:53:32.141Z,0.65
2022-09-29T14:55:33.822Z,0.80
2022-09-29T14:57:35.382Z,0.90
2022-09-29T15:00:09.727Z,0.80
2022-09-29T15:02:22.128Z,0.97
2022-09-29T15:04:23.674Z,0.70
2022-09-29T15:06:26.790Z,0.80
2022-09-29T15:08:29.709Z,0.80
2022-09-29T15:10:32.669Z,0.82
2022-09-29T15:12:35.388Z,0.80
2022-09-29T15:14:41.573Z,0.95
2022-09-29T15:17:07.725Z,0.55
2022-09-29T15:19:12.104Z,0.60
2022-09-29T15:21:19.266Z,0.68
2022-09-29T15:23:32.780Z,0.63
2022-09-29T15:25:34.241Z,0.70
2022-09-29T15:27:37.493Z,0.55
2022-09-29T15:29:39.785Z,0.50
2022-09-29T15:31:43.570Z,0.93
2022-09-29T15:33:45.623Z,0.70
2022-09-29T15:35:51.150Z,0.50
2022-09-29T15:37:53.190Z,0.82
2022-09-29T15:39:54.874Z,0.90
2022-09-29T15:42:00.986Z,1.10
2022-09-29T15:44:13.755Z,1.33
2022-09-29T15:46:18.228Z,0.60
2022-09-29T15:48:19.731Z,0.80
2022-09-29T15:50:22.630Z,0.80
2022-09-29T15:52:25.682Z,0.60
2022-09-29T15:54:35.255Z,0.90
2022-09-29T15:56:59.000Z,0.88
2022-09-29T15:59:14.635Z,0.60
2022-09-29T16:01:31.054Z,0.55
2022-09-29T16:03:52.600Z,0.77
2022-09-29T16:06:18.598Z,0.55
2022-09-29T16:08:36.227Z,0.60
2022-09-29T16:11:01.952Z,0.68
2022-09-29T16:15:27.871Z,0.70
2022-09-29T16:17:33.813Z,0.63
2022-09-29T16:19:52.406Z,0.52
2022-09-29T16:22:10.896Z,0.60
2022-09-29T16:24:21.415Z,1.00
2022-09-29T16:26:34.853Z,0.90
2022-09-29T16:28:37.646Z,0.60
2022-09-29T16:30:39.928Z,0.55
2022-09-29T16:32:43.090Z,1.30
2022-09-29T16:34:44.792Z,0.50
2022-09-29T16:36:54.225Z,0.60
2022-09-29T16:38:55.899Z,0.80
2022-09-29T16:40:57.567Z,0.60
2022-09-29T16:43:01.250Z,0.70
2022-09-29T16:45:03.284Z,1.13
2022-09-29T16:47:14.141Z,0.80
2022-09-29T16:49:17.365Z,0.77
2022-09-29T16:51:40.237Z,0.73
2022-09-29T16:53:43.189Z,1.15
2022-09-29T16:55:55.059Z,0.98
2022-09-29T16:58:01.270Z,1.08
2022-09-29T17:00:13.804Z,1.45
2022-09-29T17:02:15.675Z,0.90
2022-09-29T17:04:17.531Z,1.15
2022-09-29T17:06:19.394Z,0.98
2022-09-29T17:08:28.922Z,1.60
2022-09-29T17:10:30.655Z,1.67
2022-09-29T17:12:32.151Z,2.40
2022-09-29T17:14:33.700Z,1.90
2022-09-29T17:16:35.383Z,2.30
2022-09-29T17:18:36.856Z,2.33
2022-09-29T17:20:38.692Z,2.63
2022-09-29T17:22:40.559Z,2.17
2022-09-29T17:24:42.326Z,2.30
2022-09-29T17:27:04.061Z,2.15
2022-09-29T17:29:05.773Z,2.30
2022-09-29T17:31:10.117Z,2.47
2022-09-29T17:33:13.093Z,2.38
2022-09-29T17:35:15.720Z,2.17
2022-09-29T17:37:19.528Z,1.90
2022-09-29T17:39:22.083Z,1.20
2022-09-29T17:41:23.603Z,1.70
2022-09-29T17:43:26.771Z,1.83
2022-09-29T17:45:35.654Z,1.58
2022-09-29T17:47:37.493Z,1.40
2022-09-29T17:49:40.483Z,1.90
2022-09-29T17:51:42.140Z,1.55
2022-09-29T17:53:44.219Z,1.33
2022-09-29T17:55:47.335Z,2.20
2022-09-29T17:57:50.178Z,1.55
2022-09-29T17:59:52.171Z,2.42
2022-09-29T18:01:53.961Z,3.95
2022-09-29T18:03:57.300Z,3.10
2022-09-29T18:06:00.082Z,3.38
2022-09-29T18:08:05.807Z,2.35
2022-09-29T18:10:19.081Z,4.18
2022-09-29T18:12:20.603Z,4.05
2022-09-29T18:14:22.116Z,2.33
2022-09-29T18:16:24.075Z,2.00
2022-09-29T18:18:25.744Z,2.03
2022-09-29T18:20:28.455Z,2.15
2022-09-29T18:22:30.288Z,1.67
2022-09-29T18:24:32.250Z,1.90
2022-09-29T18:26:34.216Z,1.98
2022-09-29T18:28:35.735Z,1.30
2022-09-29T18:30:40.346Z,1.20
2022-09-29T18:32:41.943Z,1.77
2022-09-29T18:34:43.454Z,1.50
2022-09-29T18:36:45.328Z,1.65
2022-09-29T18:38:47.190Z,1.65
2022-09-29T18:40:51.103Z,3.33
2022-09-29T18:44:54.875Z,3.08
2022-09-29T18:46:56.393Z,2.38
2022-09-29T18:48:58.017Z,1.60
2022-09-29T18:50:59.563Z,1.65
2022-09-29T18:53:02.299Z,1.98
2022-09-29T18:55:03.923Z,1.80
2022-09-29T18:57:07.182Z,1.50
2022-09-29T18:59:10.930Z,2.10
2022-09-29T19:01:14.615Z,5.38
2022-09-29T19:03:20.267Z,4.75
2022-09-29T19:05:35.916Z,6.03
2022-09-29T19:07:47.784Z,3.35
2022-09-29T19:09:57.831Z,2.97
2022-09-29T19:12:06.828Z,4.28
2022-09-29T19:14:12.975Z,3.35
2022-09-29T19:16:18.294Z,2.80
2022-09-29T19:18:28.804Z,3.17
2022-09-29T19:20:39.720Z,4.30
2022-09-29T19:22:50.953Z,3.40
2022-09-29T19:25:01.081Z,4.05
2022-09-29T19:27:09.979Z,3.33
2022-09-29T19:29:21.431Z,3.00
2022-09-29T19:31:32.413Z,2.95
2022-09-29T19:33:35.777Z,2.83
2022-09-29T19:35:37.230Z,3.45
2022-09-29T19:37:40.257Z,2.40
2022-09-29T19:39:46.642Z,2.63
2022-09-29T19:41:48.524Z,2.65
2022-09-29T19:43:50.731Z,2.50
2022-09-29T19:45:52.289Z,2.58
2022-09-29T19:47:57.105Z,2.13
2022-09-29T19:50:17.461Z,2.10
2022-09-29T19:52:19.017Z,3.20
2022-09-29T19:54:22.152Z,2.92
2022-09-29T19:56:23.960Z,2.73
2022-09-29T19:58:26.038Z,2.42
2022-09-29T20:00:27.655Z,2.65
2022-09-29T20:02:29.125Z,2.80
2022-09-29T20:04:33.309Z,2.47
2022-09-29T20:08:39.389Z,2.90
2022-09-29T20:10:42.010Z,3.00
2022-09-29T20:12:43.688Z,2.72
2022-09-29T20:14:45.161Z,4.13
2022-09-29T20:16:46.707Z,3.00
2022-09-29T20:18:49.103Z,3.35
2022-09-29T20:21:15.685Z,3.58
2022-09-29T20:23:41.990Z,2.95
2022-09-29T20:25:43.497Z,3.08
2022-09-29T20:27:44.963Z,2.38
2022-09-29T20:29:48.436Z,2.17
2022-09-29T20:31:49.916Z,2.85
2022-09-29T20:33:51.935Z,3.25
2022-09-29T20:35:53.368Z,3.67
2022-09-29T20:37:54.985Z,4.13
2022-09-29T20:39:56.589Z,3.13
2022-09-29T20:47:20.002Z,3.88
2022-09-29T20:49:46.662Z,4.13
2022-09-29T20:52:12.845Z,3.13
2022-09-29T20:54:14.775Z,3.70
2022-09-29T20:56:17.090Z,3.38
2022-09-29T20:58:19.010Z,3.30
2022-09-29T21:00:20.529Z,3.40
2022-09-29T21:02:22.101Z,3.88
2022-09-29T21:04:23.969Z,4.10
2022-09-29T21:06:27.059Z,5.85
2022-09-29T21:08:28.479Z,4.30
2022-09-29T21:10:29.878Z,4.55
2022-09-29T21:12:34.521Z,3.40
2022-09-29T21:14:37.879Z,4.00
2022-09-29T21:16:41.841Z,3.60
2022-09-29T21:18:43.299Z,4.68
2022-09-29T21:20:44.904Z,4.75
2022-09-29T21:22:46.482Z,6.45
2022-09-29T21:24:48.649Z,6.72
2022-09-29T21:26:50.414Z,9.05
2022-09-29T21:28:55.903Z,3.70
2022-09-29T21:31:02.370Z,4.30
2022-09-29T21:33:04.039Z,3.83
2022-09-29T21:35:05.649Z,4.47
2022-09-29T21:37:07.294Z,3.60
2022-09-29T21:39:09.466Z,3.80
2022-09-29T21:41:15.008Z,3.40
2022-09-29T21:43:16.439Z,3.80
2022-09-29T21:45:17.841Z,3.53
2022-09-29T21:47:39.337Z,3.03
2022-09-29T21:49:41.206Z,3.10
2022-09-29T21:51:43.734Z,3.65
2022-09-29T21:53:45.423Z,3.15
2022-09-29T21:55:46.841Z,3.60
2022-09-29T21:57:48.249Z,3.30
2022-09-29T21:59:49.931Z,3.00
2022-09-29T22:01:52.460Z,3.08
2022-09-29T22:03:57.369Z,4.88
2022-09-29T22:05:59.251Z,3.80
2022-09-29T22:08:00.797Z,4.05
2022-09-29T22:10:05.020Z,3.40
2022-09-29T22:12:20.191Z,2.90
2022-09-29T22:14:41.964Z,3.17
2022-09-29T22:16:52.245Z,3.28
2022-09-29T22:19:24.190Z,3.45
2022-09-29T22:21:48.386Z,5.57
2022-09-29T22:24:01.508Z,4.80
2022-09-29T22:26:18.817Z,6.10
2022-09-29T22:28:36.092Z,6.07
2022-09-29T22:30:53.122Z,5.18
2022-09-29T22:33:06.944Z,5.35
2022-09-29T22:35:21.381Z,4.60
2022-09-29T22:37:37.834Z,2.88
2022-09-29T22:39:41.897Z,2.75
2022-09-29T22:41:43.763Z,2.78
2022-09-29T22:43:45.147Z,3.05
2022-09-29T22:45:50.486Z,2.78
2022-09-29T22:47:55.607Z,1.85
2022-09-29T22:49:57.017Z,2.45
2022-09-29T22:51:58.478Z,2.00
2022-09-29T22:53:59.843Z,2.10
2022-09-29T22:56:07.384Z,2.33
2022-09-29T22:58:09.398Z,2.50
2022-09-29T23:00:11.362Z,2.55
2022-09-29T23:02:12.817Z,2.03
2022-09-29T23:04:14.388Z,2.15
2022-09-29T23:06:16.008Z,2.42
2022-09-29T23:08:18.710Z,2.60
2022-09-29T23:10:20.218Z,2.22
2022-09-29T23:12:22.278Z,2.10
2022-09-29T23:14:23.805Z,2.10
2022-09-29T23:16:25.302Z,7.32
2022-09-29T23:18:27.090Z,8.43
2022-09-29T23:20:29.052Z,7.05
2022-09-29T23:22:30.640Z,2.17
2022-09-29T23:24:32.130Z,1.73
2022-09-29T23:26:33.798Z,1.83
2022-09-29T23:28:35.743Z,1.38
2022-09-29T23:30:37.266Z,1.95
2022-09-29T23:32:38.688Z,1.77
2022-09-29T23:34:40.217Z,1.52
2022-09-29T23:36:41.674Z,1.80
2022-09-29T23:39:02.735Z,1.70
2022-09-29T23:41:04.180Z,1.50
2022-09-29T23:43:06.063Z,1.35
2022-09-29T23:45:07.623Z,1.73
2022-09-29T23:47:08.983Z,1.50
2022-09-29T23:49:15.705Z,1.33
2022-09-29T23:51:18.314Z,1.75
2022-09-29T23:53:19.802Z,1.35
2022-09-29T23:55:21.276Z,1.52
2022-09-29T23:57:24.390Z,1.85
2022-09-29T23:59:26.438Z,2.05
